Time;durP1;ratioP1;P1;durP2;ratioP2;P2;SDS_P1;SDS_P2;PMS_P1;PMS_P2;Temp;Humidity;BMP_temperature;BMP_pressure;BME280_temperature;BME280_humidity;BME280_pressure;Samples;Min_cycle;Max_cycle;Signal;HPM_P1;HPM_P2
2022/11/15 00:00:30;;;;;;;0.50;0.50;;;;;;;8.46;75.41;96694.53;29395;222;63009;-56
2022/11/15 00:01:01;;;;;;;0.50;0.50;;;;;;;8.44;75.59;96693.22;29395;255;63004;-57
2022/11/15 00:01:33;;;;;;;0.50;0.50;;;;;;;8.44;75.83;96694.00;29394;271;64014;-57
2022/11/15 00:02:04;;;;;;;0.50;0.50;;;;;;;8.42;75.89;96690.78;29395;230;63011;-57
2022/11/15 00:02:36;;;;;;;0.50;0.50;;;;;;;8.42;75.80;96696.19;29395;253;63009;-56
2022/11/15 00:03:07;;;;;;;0.50;0.50;;;;;;;8.40;76.03;96690.25;29395;252;63005;-57
2022/11/15 00:03:38;;;;;;;0.50;0.50;;;;;;;8.40;76.19;96690.25;29395;252;63009;-57
2022/11/15 00:04:10;;;;;;;0.50;0.50;;;;;;;8.43;75.70;96692.41;29395;277;63005;-57
2022/11/15 00:04:41;;;;;;;0.50;0.50;;;;;;;8.44;75.76;96694.00;29395;207;63009;-56
2022/11/15 00:05:13;;;;;;;0.50;0.50;;;;;;;8.43;75.62;96687.00;29395;222;63005;-57
2022/11/15 00:05:45;;;;;;;0.50;0.50;;;;;;;8.42;75.59;96693.50;29395;205;63009;-56
2022/11/15 00:06:16;;;;;;;0.50;0.50;;;;;;;8.41;76.07;96686.47;29395;232;63004;-57
2022/11/15 00:06:47;;;;;;;0.50;0.50;;;;;;;8.40;75.87;96698.38;29394;213;64013;-57
2022/11/15 00:07:19;;;;;;;0.50;0.50;;;;;;;8.38;75.87;96689.72;29395;214;63004;-57
2022/11/15 00:07:50;;;;;;;0.50;0.50;;;;;;;8.38;75.94;96684.31;29395;218;63009;-68
2022/11/15 00:08:21;;;;;;;0.50;0.50;;;;;;;8.38;76.40;96684.31;29395;224;63009;-57
2022/11/15 00:08:52;;;;;;;0.50;0.50;;;;;;;8.38;76.23;96684.31;29395;224;63008;-57
2022/11/15 00:09:24;;;;;;;0.50;0.50;;;;;;;8.38;76.01;96684.31;29395;253;63005;-57
2022/11/15 00:09:55;;;;;;;0.50;0.50;;;;;;;8.42;76.11;96690.78;29395;197;63009;-57
2022/11/15 00:10:27;;;;;;;0.50;0.50;;;;;;;8.43;76.20;96687.00;29395;203;63005;-58
2022/11/15 00:11:01;;;;;;;0.50;0.50;;;;;;;8.44;76.03;96687.78;29395;268;63024;-56
2022/11/15 00:11:32;;;;;;;0.50;0.50;;;;;;;8.45;76.21;96690.22;29395;271;63005;-57
2022/11/15 00:12:04;;;;;;;0.50;0.50;;;;;;;8.46;76.21;96688.31;29394;218;64013;-57
2022/11/15 00:12:40;;;;;;;0.50;0.50;;;;;;;8.47;75.96;96682.62;29395;214;63005;-57
2022/11/15 00:13:13;;;;;;;0.50;0.50;;;;;;;8.47;75.74;96693.44;29395;247;63009;-57
2022/11/15 00:13:44;;;;;;;0.95;0.95;;;;;;;8.47;76.23;96688.03;29395;227;63004;-56
2022/11/15 00:14:15;;;;;;;0.50;0.50;;;;;;;8.48;75.94;96684.25;29395;216;63009;-58
2022/11/15 00:14:46;;;;;;;0.50;0.50;;;;;;;8.51;75.63;96689.09;29395;221;63004;-57
2022/11/15 00:15:18;;;;;;;0.50;0.50;;;;;;;8.52;75.64;96685.28;29395;258;63009;-57
2022/11/15 00:15:49;;;;;;;0.50;0.50;;;;;;;8.55;75.34;96684.72;29395;223;63004;-57
2022/11/15 00:16:20;;;;;;;0.50;0.50;;;;;;;8.60;74.49;96692.81;29395;254;63008;-57
2022/11/15 00:16:52;;;;;;;0.50;0.50;;;;;;;8.62;74.81;96690.63;29395;202;63005;-58
2022/11/15 00:17:23;;;;;;;0.50;0.50;;;;;;;8.64;74.78;96688.44;29394;230;64014;-68
2022/11/15 00:17:54;;;;;;;0.50;0.50;;;;;;;8.65;74.25;96690.06;29395;197;63005;-57
2022/11/15 00:18:26;;;;;;;0.50;0.50;;;;;;;8.66;74.37;96685.44;29395;215;63009;-57
2022/11/15 00:18:58;;;;;;;0.50;0.50;;;;;;;8.69;74.62;96688.38;29395;259;63005;-57
2022/11/15 00:19:29;;;;;;;0.50;0.50;;;;;;;8.79;73.56;96681.25;29394;216;64009;-57
2022/11/15 00:20:00;;;;;;;0.50;0.50;;;;;;;8.81;73.19;96681.75;29395;265;63005;-57
2022/11/15 00:20:34;;;;;;;0.45;0.45;;;;;;;8.84;73.00;96681.19;29395;218;63009;-57
2022/11/15 00:21:09;;;;;;;0.50;0.50;;;;;;;8.83;72.65;96677.69;29395;245;63004;-57
2022/11/15 00:21:40;;;;;;;0.50;0.50;;;;;;;8.83;73.15;96685.00;29395;218;63009;-57
2022/11/15 00:22:13;;;;;;;0.50;0.50;;;;;;;8.85;73.28;96682.81;29395;229;63004;-58
2022/11/15 00:22:45;;;;;;;0.50;0.50;;;;;;;8.89;72.99;96681.16;29394;219;64013;-57
2022/11/15 00:23:16;;;;;;;0.50;0.50;;;;;;;8.91;72.90;96676.25;29394;215;64008;-57
2022/11/15 00:23:48;;;;;;;0.50;0.50;;;;;;;8.92;72.72;96677.87;29395;229;63008;-57
2022/11/15 00:24:20;;;;;;;0.50;0.50;;;;;;;8.90;72.78;96680.06;29395;261;63005;-57
2022/11/15 00:24:51;;;;;;;0.50;0.50;;;;;;;8.90;73.06;96680.06;29394;257;64014;-56
2022/11/15 00:25:25;;;;;;;0.50;0.50;;;;;;;8.89;72.71;96679.25;29395;219;63005;-57
2022/11/15 00:25:58;;;;;;;0.50;0.50;;;;;;;8.88;72.98;96676.81;29394;227;64013;-57
2022/11/15 00:26:29;;;;;;;0.50;0.50;;;;;;;8.87;72.98;96676.03;29395;203;63005;-69
2022/11/15 00:27:00;;;;;;;0.50;0.50;;;;;;;8.94;72.40;96670.28;29395;216;63009;-57
2022/11/15 00:27:31;;;;;;;0.50;0.50;;;;;;;8.99;72.25;96678.34;29395;215;63005;-66
2022/11/15 00:28:06;;;;;;;0.50;0.50;;;;;;;9.02;72.15;96678.53;29394;198;64013;-57
2022/11/15 00:28:38;;;;;;;0.50;0.50;;;;;;;9.01;72.26;96670.72;29395;219;63004;-57
2022/11/15 00:29:10;;;;;;;0.50;0.50;;;;;;;8.99;72.12;96673.72;29395;198;63026;-58
2022/11/15 00:29:43;;;;;;;0.50;0.50;;;;;;;9.01;71.99;96678.84;29394;213;64009;-57
2022/11/15 00:30:14;;;;;;;0.50;0.50;;;;;;;9.00;72.05;96679.97;29395;241;63009;-57
2022/11/15 00:30:46;;;;;;;0.50;0.50;;;;;;;8.98;72.21;96672.13;29395;244;63004;-57
2022/11/15 00:31:17;;;;;;;0.50;0.50;;;;;;;8.95;72.07;96671.88;29395;196;63008;-57
2022/11/15 00:31:48;;;;;;;0.50;0.50;;;;;;;8.95;72.63;96680.00;29395;231;63005;-57
2022/11/15 00:32:23;;;;;;;0.60;0.60;;;;;;;8.97;72.26;96672.41;29395;198;63009;-57
2022/11/15 00:32:54;;;;;;;0.50;0.50;;;;;;;8.96;72.17;96668.09;29395;216;63005;-57
2022/11/15 00:33:25;;;;;;;0.50;0.50;;;;;;;8.97;72.19;96667.00;29395;251;63009;-57
2022/11/15 00:34:00;;;;;;;0.55;0.55;;;;;;;9.02;72.33;96666.91;29395;202;63005;-59
2022/11/15 00:34:32;;;;;;;0.50;0.50;;;;;;;9.05;71.62;96672.56;29395;231;63009;-56
2022/11/15 00:35:05;;;;;;;0.50;0.50;;;;;;;9.08;71.56;96663.88;29394;268;64009;-57
2022/11/15 00:35:37;;;;;;;0.50;0.50;;;;;;;9.07;71.31;96661.44;29395;290;63009;-57
2022/11/15 00:36:10;;;;;;;0.50;0.50;;;;;;;9.08;71.11;96661.16;29395;263;63009;-57
2022/11/15 00:36:42;;;;;;;0.50;0.50;;;;;;;9.10;71.40;96663.56;29395;262;63023;-68
2022/11/15 00:37:15;;;;;;;0.50;0.50;;;;;;;9.10;71.38;96665.47;29395;207;63004;-57
2022/11/15 00:37:47;;;;;;;0.50;0.50;;;;;;;9.07;71.64;96664.16;29395;197;63008;-57
2022/11/15 00:38:19;;;;;;;0.50;0.50;;;;;;;9.07;71.59;96664.16;29395;199;63004;-57
2022/11/15 00:38:50;;;;;;;0.50;0.50;;;;;;;9.08;71.45;96663.06;29395;257;63008;-57
2022/11/15 00:39:22;;;;;;;0.50;0.50;;;;;;;9.12;71.52;96661.38;29395;208;63005;-55
2022/11/15 00:39:55;;;;;;;0.50;0.50;;;;;;;9.11;71.35;96665.19;29395;267;63009;-57
2022/11/15 00:40:29;;;;;;;0.50;0.50;;;;;;;9.10;71.66;96655.47;29394;272;64009;-57
2022/11/15 00:41:01;;;;;;;0.50;0.50;;;;;;;9.10;71.71;96662.78;29395;203;63009;-57
2022/11/15 00:41:34;;;;;;;0.50;0.50;;;;;;;9.12;71.71;96660.59;29395;220;63009;-57
2022/11/15 00:42:05;;;;;;;0.50;0.50;;;;;;;9.13;71.48;96662.19;29395;202;63009;-70
2022/11/15 00:42:37;;;;;;;0.50;0.50;;;;;;;9.09;71.65;96656.56;29395;206;63004;-69
2022/11/15 00:43:08;;;;;;;1.12;1.12;;;;;;;9.10;71.17;96662.78;29395;206;63019;-69
2022/11/15 00:43:39;;;;;;;0.50;0.50;;;;;;;9.06;71.71;96660.63;29395;211;63004;-56
2022/11/15 00:44:11;;;;;;;0.50;0.50;;;;;;;9.04;71.58;96659.31;29395;206;63009;-71
2022/11/15 00:44:42;;;;;;;0.50;0.50;;;;;;;9.02;71.68;96651.47;29395;252;63004;-56
2022/11/15 00:45:13;;;;;;;0.50;0.50;;;;;;;9.01;71.67;96660.69;29395;245;63008;-57
2022/11/15 00:45:44;;;;;;;0.50;0.50;;;;;;;9.04;71.87;96660.13;29394;199;64008;-69
2022/11/15 00:46:15;;;;;;;0.50;0.50;;;;;;;9.04;72.25;96656.59;29395;279;63009;-57
2022/11/15 00:46:47;;;;;;;0.50;0.50;;;;;;;9.05;71.75;96650.91;29395;250;63005;-56
2022/11/15 00:47:18;;;;;;;0.50;0.50;;;;;;;9.06;71.50;96652.53;29395;206;63009;-57
2022/11/15 00:47:49;;;;;;;0.50;0.50;;;;;;;9.05;71.88;96656.31;29395;205;63011;-57
2022/11/15 00:48:21;;;;;;;0.50;0.50;;;;;;;9.05;71.95;96658.22;29395;274;63009;-57
2022/11/15 00:48:52;;;;;;;0.50;0.50;;;;;;;9.07;71.68;96650.62;29394;255;64009;-57
2022/11/15 00:49:23;;;;;;;0.50;0.50;;;;;;;9.12;71.31;96650.56;29395;228;63009;-58
2022/11/15 00:49:55;;;;;;;0.50;0.50;;;;;;;9.16;71.46;96648.88;29395;210;63008;-56
2022/11/15 00:50:26;;;;;;;0.50;0.50;;;;;;;9.16;71.21;96650.78;29395;208;63009;-58
2022/11/15 00:50:57;;;;;;;0.50;0.50;;;;;;;9.16;71.42;96646.19;29395;332;63004;-56
2022/11/15 00:51:29;;;;;;;0.60;0.60;;;;;;;9.14;71.03;96653.78;29395;245;63009;-58
2022/11/15 00:52:00;;;;;;;0.50;0.50;;;;;;;9.14;71.36;96648.37;29395;252;63016;-58
2022/11/15 00:52:31;;;;;;;0.50;0.50;;;;;;;9.13;71.14;96649.47;29395;212;63009;-58
2022/11/15 00:53:02;;;;;;;0.50;0.50;;;;;;;9.12;71.54;96645.16;29395;211;63011;-57
2022/11/15 00:53:34;;;;;;;0.52;0.52;;;;;;;9.11;71.17;96648.94;29395;205;63009;-56
2022/11/15 00:54:05;;;;;;;0.50;0.50;;;;;;;9.11;71.69;96654.37;29394;247;64009;-57
2022/11/15 00:54:36;;;;;;;0.50;0.50;;;;;;;9.07;71.41;96647.91;29395;254;63009;-57
2022/11/15 00:55:14;;;;;;;0.50;0.50;;;;;;;9.04;71.63;96648.50;29395;361;63005;-58
2022/11/15 00:55:46;;;;;;;0.50;0.50;;;;;;;9.04;71.63;96649.28;29395;202;63009;-57
2022/11/15 00:56:17;;;;;;;0.55;0.55;;;;;;;9.03;71.53;96644.97;29395;202;63005;-56
2022/11/15 00:56:48;;;;;;;0.50;0.50;;;;;;;9.07;71.35;96648.72;29395;209;63009;-57
2022/11/15 00:57:20;;;;;;;2.33;2.22;;;;;;;9.13;71.22;96645.97;29395;246;63005;-57
2022/11/15 00:57:51;;;;;;;0.50;0.50;;;;;;;9.15;71.03;96647.28;29395;220;63012;-57
2022/11/15 00:58:22;;;;;;;0.50;0.50;;;;;;;9.20;70.49;96641.81;29394;206;64009;-57
2022/11/15 00:58:53;;;;;;;0.50;0.50;;;;;;;9.19;70.37;96645.59;29395;263;63009;-57
2022/11/15 00:59:25;;;;;;;0.50;0.50;;;;;;;9.19;70.44;96642.91;29396;253;63004;-57
2022/11/15 00:59:56;;;;;;;0.50;0.50;;;;;;;9.20;70.39;96638.28;29396;215;63009;-57
2022/11/15 01:00:27;;;;;;;0.50;0.50;;;;;;;9.19;70.50;96645.59;29396;250;63004;-57
2022/11/15 01:01:11;;;;;;;0.50;0.50;;;;;;;9.22;70.48;96639.63;29395;205;64014;-57
2022/11/15 01:01:43;;;;;;;0.50;0.50;;;;;;;9.22;70.46;96639.63;29395;199;64009;-57
2022/11/15 01:02:14;;;;;;;0.50;0.50;;;;;;;9.20;70.50;96639.09;29395;228;64014;-57
2022/11/15 01:02:45;;;;;;;0.50;0.50;;;;;;;9.19;70.79;96636.69;29396;245;63005;-57
2022/11/15 01:03:17;;;;;;;0.50;0.50;;;;;;;9.18;70.80;96633.16;29396;222;63009;-57
2022/11/15 01:03:48;;;;;;;0.50;0.50;;;;;;;9.19;70.85;96637.50;29396;209;63005;-57
2022/11/15 01:04:20;;;;;;;0.50;0.50;;;;;;;9.21;70.32;96638.00;29396;259;63009;-57
2022/11/15 01:04:51;;;;;;;0.50;0.50;;;;;;;9.22;70.56;96628.78;29396;202;63007;-58
2022/11/15 01:05:23;;;;;;;0.50;0.50;;;;;;;9.20;70.50;96632.87;29396;220;63009;-57
2022/11/15 01:05:58;;;;;;;2.80;2.60;;;;;;;9.20;70.77;96635.59;29396;235;63004;-57
2022/11/15 01:06:29;;;;;;;0.50;0.50;;;;;;;9.20;70.87;96641.81;29396;227;63009;-58
2022/11/15 01:07:01;;;;;;;0.47;0.47;;;;;;;9.19;70.86;96633.97;29395;224;64009;-57
2022/11/15 01:07:32;;;;;;;0.50;0.50;;;;;;;9.23;70.19;96635.81;29396;255;63014;-58
2022/11/15 01:08:04;;;;;;;0.50;0.50;;;;;;;9.22;70.56;96636.09;29396;210;63004;-58
2022/11/15 01:08:36;;;;;;;0.50;0.50;;;;;;;9.21;70.76;96638.00;29395;197;64014;-57
2022/11/15 01:09:08;;;;;;;0.50;0.50;;;;;;;9.22;70.53;96628.78;29396;218;63005;-57
2022/11/15 01:09:40;;;;;;;0.50;0.50;;;;;;;9.19;70.40;96629.38;29396;245;63009;-59
2022/11/15 01:10:11;;;;;;;0.50;0.50;;;;;;;9.20;70.59;96625.56;29396;239;63005;-58
2022/11/15 01:10:43;;;;;;;0.50;0.50;;;;;;;9.19;70.79;96634.78;29396;218;63009;-57
2022/11/15 01:11:14;;;;;;;0.50;0.50;;;;;;;9.20;70.60;96628.28;29396;292;63005;-57
2022/11/15 01:11:45;;;;;;;0.50;0.50;;;;;;;9.19;70.29;96626.66;29396;406;63009;-56
2022/11/15 01:12:17;;;;;;;0.50;0.50;;;;;;;9.19;70.15;96626.66;29395;211;64009;-56
2022/11/15 01:12:49;;;;;;;0.50;0.50;;;;;;;9.21;70.13;96627.19;29396;241;63009;-56
2022/11/15 01:13:21;;;;;;;0.50;0.50;;;;;;;9.26;70.25;96621.69;29396;268;63004;-57
2022/11/15 01:13:52;;;;;;;0.50;0.50;;;;;;;9.27;70.17;96620.59;29396;346;63009;-58
2022/11/15 01:14:23;;;;;;;0.50;0.50;;;;;;;9.27;70.36;96620.59;29396;271;63004;-57
2022/11/15 01:14:55;;;;;;;0.50;0.50;;;;;;;9.24;70.01;96623.91;29396;202;63009;-57
2022/11/15 01:15:26;;;;;;;0.50;0.50;;;;;;;9.24;70.25;96626.59;29396;267;63004;-58
2022/11/15 01:15:58;;;;;;;0.40;0.40;;;;;;;9.20;70.46;96625.56;29396;267;63008;-57
2022/11/15 01:16:29;;;;;;;0.50;0.50;;;;;;;9.18;70.43;96625.03;29396;198;63005;-57
2022/11/15 01:17:00;;;;;;;0.50;0.50;;;;;;;9.17;70.33;96622.63;29397;276;63009;-69
2022/11/15 01:17:32;;;;;;;0.50;0.50;;;;;;;9.14;70.64;96626.72;29395;200;64009;-57
2022/11/15 01:18:04;;;;;;;0.50;0.50;;;;;;;9.13;70.87;96625.09;29396;234;63009;-57
2022/11/15 01:18:35;;;;;;;0.50;0.50;;;;;;;9.12;70.71;96626.19;29396;214;63005;-57
2022/11/15 01:19:07;;;;;;;0.50;0.50;;;;;;;9.11;70.39;96629.19;29396;238;63009;-58
2022/11/15 01:19:41;;;;;;;0.50;0.50;;;;;;;9.12;70.55;96623.50;29395;263;64009;-57
2022/11/15 01:20:12;;;;;;;0.50;0.50;;;;;;;9.10;70.89;96631.09;29396;257;63009;-57
2022/11/15 01:20:44;;;;;;;0.50;0.50;;;;;;;9.08;70.99;96627.88;29396;229;63004;-56
2022/11/15 01:21:18;;;;;;;0.50;0.50;;;;;;;9.08;70.75;96631.38;29396;241;63009;-57
2022/11/15 01:21:50;;;;;;;0.50;0.50;;;;;;;9.07;71.38;96634.38;29396;221;63004;-56
2022/11/15 01:22:22;;;;;;;0.50;0.50;;;;;;;9.05;71.02;96628.44;29396;196;63009;-57
2022/11/15 01:22:54;;;;;;;0.50;0.50;;;;;;;9.05;70.66;96625.75;29395;247;64008;-57
2022/11/15 01:23:25;;;;;;;0.50;0.50;;;;;;;9.02;70.99;96624.41;29396;208;63008;-57
2022/11/15 01:23:57;;;;;;;0.50;0.50;;;;;;;9.00;71.35;96626.63;29396;202;63005;-57
2022/11/15 01:24:28;;;;;;;0.50;0.50;;;;;;;9.00;71.56;96625.84;29395;210;64014;-71
2022/11/15 01:24:59;;;;;;;0.50;0.50;;;;;;;8.99;71.62;96635.03;29396;202;63005;-57
2022/11/15 01:25:30;;;;;;;0.50;0.50;;;;;;;8.97;71.42;96629.91;29395;244;64013;-57
2022/11/15 01:26:04;;;;;;;0.50;0.50;;;;;;;8.98;71.52;96633.44;29396;213;63005;-57
2022/11/15 01:26:35;;;;;;;0.50;0.50;;;;;;;8.96;71.28;96625.59;29396;251;63009;-57
2022/11/15 01:27:07;;;;;;;0.50;0.50;;;;;;;8.95;71.55;96631.28;29396;200;63005;-57
2022/11/15 01:27:39;;;;;;;0.50;0.50;;;;;;;8.95;71.54;96628.59;29396;251;63015;-57
2022/11/15 01:28:11;;;;;;;0.50;0.50;;;;;;;8.92;71.70;96621.06;29396;200;63004;-57
2022/11/15 01:28:43;;;;;;;0.40;0.40;;;;;;;8.92;71.56;96624.56;29396;258;63009;-57
2022/11/15 01:29:14;;;;;;;0.50;0.50;;;;;;;8.91;71.48;96631.06;29396;205;63004;-57
2022/11/15 01:29:47;;;;;;;0.50;0.50;;;;;;;8.89;71.56;96629.75;29396;255;63009;-57
2022/11/15 01:30:18;;;;;;;0.50;0.50;;;;;;;8.86;71.79;96631.13;29396;197;63010;-58
2022/11/15 01:30:50;;;;;;;0.50;0.50;;;;;;;8.85;72.14;96628.69;29395;215;64013;-57
2022/11/15 01:31:22;;;;;;;0.50;0.50;;;;;;;8.84;71.98;96621.69;29396;216;63005;-57
2022/11/15 01:31:54;;;;;;;0.50;0.50;;;;;;;8.86;71.74;96625.72;29396;260;63009;-56
2022/11/15 01:32:25;;;;;;;0.50;0.50;;;;;;;8.86;71.93;96620.28;29396;205;63005;-57
2022/11/15 01:32:56;;;;;;;0.50;0.50;;;;;;;8.87;72.07;96623.81;29395;203;64013;-58
2022/11/15 01:33:29;;;;;;;0.50;0.50;;;;;;;8.88;71.88;96622.72;29396;202;63008;-57
2022/11/15 01:34:00;;;;;;;0.50;0.50;;;;;;;8.86;72.00;96633.03;29396;233;63009;-57
2022/11/15 01:34:31;;;;;;;0.50;0.50;;;;;;;8.81;72.27;96627.66;29396;228;63005;-58
2022/11/15 01:35:04;;;;;;;0.50;0.50;;;;;;;8.77;72.22;96632.03;29396;235;63009;-57
2022/11/15 01:35:39;;;;;;;0.50;0.50;;;;;;;8.73;72.23;96635.31;29396;270;63004;-57
2022/11/15 01:36:17;;;;;;;0.50;0.50;;;;;;;8.67;73.15;96635.62;29395;247;64013;-58
2022/11/15 01:36:50;;;;;;;0.50;0.50;;;;;;;8.64;72.91;96628.12;29395;261;64009;-57
2022/11/15 01:37:21;;;;;;;0.50;0.50;;;;;;;8.62;73.05;96627.59;29396;213;63009;-57
2022/11/15 01:37:52;;;;;;;0.50;0.50;;;;;;;8.61;73.41;96634.91;29395;250;64004;-58
2022/11/15 01:38:24;;;;;;;0.40;0.40;;;;;;;8.59;73.33;96628.19;29396;218;63008;-57
2022/11/15 01:38:57;;;;;;;0.50;0.50;;;;;;;8.62;73.49;96628.41;29396;356;63005;-58
2022/11/15 01:39:28;;;;;;;0.50;0.50;;;;;;;8.64;73.27;96623.53;29395;200;64014;-70
2022/11/15 01:40:03;;;;;;;0.50;0.50;;;;;;;8.62;73.32;96624.91;29396;197;63005;-57
2022/11/15 01:40:35;;;;;;;0.50;0.50;;;;;;;8.65;72.98;96627.84;29396;275;63009;-58
2022/11/15 01:41:06;;;;;;;0.50;0.50;;;;;;;8.65;73.45;96627.84;29396;240;63005;-57
2022/11/15 01:41:39;;;;;;;0.50;0.50;;;;;;;8.62;73.16;96631.13;29396;250;63009;-57
2022/11/15 01:42:13;;;;;;;0.50;0.50;;;;;;;8.61;73.35;96626.81;29396;262;63004;-71
2022/11/15 01:42:44;;;;;;;0.50;0.50;;;;;;;8.62;73.30;96619.50;29397;215;63009;-57
2022/11/15 01:43:31;;;;;;;0.50;0.50;;;;;;;8.64;73.41;96628.94;29397;271;63004;-57
2022/11/15 01:44:49;;;;;;;0.50;0.50;;;;;;;8.67;72.99;96622.94;29397;202;63009;-58
2022/11/15 01:45:21;;;;;;;0.50;0.50;;;;;;;8.58;73.49;96621.97;29396;214;64013;-57
2022/11/15 01:46:02;;;;;;;0.50;0.50;;;;;;;8.57;73.49;96623.06;29397;201;63004;-56
2022/11/15 01:46:37;;;;;;;0.50;0.50;;;;;;;8.55;73.96;96625.22;29396;249;64014;-58
2022/11/15 01:47:40;;;;;;;0.50;0.50;;;;;;;8.55;73.85;96625.22;29397;208;63005;-57
2022/11/15 01:48:11;;;;;;;0.50;0.50;;;;;;;8.50;73.81;96630.69;29419;244;63009;-56
2022/11/15 01:48:43;;;;;;;0.50;0.50;;;;;;;8.48;73.99;96618.53;29397;220;63014;-72
2022/11/15 01:49:21;;;;;;;0.50;0.50;;;;;;;8.44;74.25;96622.91;29397;235;63009;-57
2022/11/15 01:50:04;;;;;;;0.50;0.50;;;;;;;8.41;74.37;96627.00;29397;233;63004;-57
2022/11/15 01:50:35;;;;;;;0.50;0.50;;;;;;;8.39;74.48;96626.47;29396;235;64013;-57
2022/11/15 01:51:11;;;;;;;0.50;0.50;;;;;;;8.38;74.67;96624.84;29397;218;63004;-58
2022/11/15 01:51:43;;;;;;;0.50;0.50;;;;;;;8.39;74.31;96626.47;29397;202;63009;-58
2022/11/15 01:52:19;;;;;;;0.50;0.50;;;;;;;8.36;74.66;96627.03;29397;204;63004;-71
2022/11/15 01:52:50;;;;;;;0.50;0.50;;;;;;;8.37;74.76;96626.75;29397;242;63008;-57
2022/11/15 01:53:24;;;;;;;0.50;0.50;;;;;;;8.37;74.47;96628.66;29396;227;64009;-57
2022/11/15 01:54:00;;;;;;;0.50;0.50;;;;;;;8.34;74.63;96624.59;29397;222;63015;-71
2022/11/15 01:54:32;;;;;;;0.50;0.50;;;;;;;8.31;75.04;96618.97;29397;308;63005;-57
2022/11/15 01:55:21;;;;;;;0.50;0.50;;;;;;;8.32;75.13;96615.97;29396;259;64013;-57
2022/11/15 01:55:53;;;;;;;0.50;0.50;;;;;;;8.31;74.74;96618.97;29397;238;63005;-56
2022/11/15 01:56:29;;;;;;;0.50;0.50;;;;;;;8.31;74.68;96618.97;29396;199;63013;-57
2022/11/15 01:57:05;;;;;;;0.50;0.50;;;;;;;8.30;74.88;96617.34;29396;208;63005;-57
2022/11/15 01:57:38;;;;;;;0.50;0.50;;;;;;;8.27;74.79;96618.72;29395;247;64009;-58
2022/11/15 01:58:10;;;;;;;0.60;0.60;;;;;;;8.26;75.09;96621.72;29395;224;64009;-71
2022/11/15 01:58:43;;;;;;;0.50;0.50;;;;;;;8.24;75.37;96618.47;29397;206;63009;-56
2022/11/15 01:59:15;;;;;;;0.50;0.50;;;;;;;8.19;75.11;96616.63;29396;252;63004;-58
2022/11/15 01:59:47;;;;;;;0.50;0.50;;;;;;;8.17;75.31;96618.00;29396;223;63008;-57
2022/11/15 02:00:19;;;;;;;0.50;0.50;;;;;;;8.14;75.44;96619.38;29396;269;63004;-57
2022/11/15 02:00:51;;;;;;;0.50;0.50;;;;;;;8.12;75.60;96620.75;29396;211;63009;-57
2022/11/15 02:01:25;;;;;;;0.50;0.50;;;;;;;8.11;75.84;96617.22;29397;213;63005;-56
2022/11/15 02:01:57;;;;;;;0.50;0.50;;;;;;;8.09;75.91;96614.00;29396;218;63009;-58
2022/11/15 02:02:28;;;;;;;0.50;0.50;;;;;;;8.07;75.59;96614.28;29396;294;63005;-58
2022/11/15 02:03:00;;;;;;;0.50;0.50;;;;;;;8.06;76.02;96618.06;29396;247;63009;-57
2022/11/15 02:03:40;;;;;;;0.50;0.50;;;;;;;8.06;76.22;96618.06;29395;226;64009;-59
2022/11/15 02:04:24;;;;;;;1.55;1.50;;;;;;;8.06;75.81;96617.28;29396;221;63009;-57
2022/11/15 02:04:55;;;;;;;0.50;0.50;;;;;;;8.04;75.81;96612.16;29395;239;64009;-57
2022/11/15 02:05:26;;;;;;;0.50;0.50;;;;;;;8.04;76.16;96617.56;29396;222;63009;-58
2022/11/15 02:05:59;;;;;;;0.50;0.50;;;;;;;8.03;75.93;96618.63;29396;251;63004;-57
2022/11/15 02:06:31;;;;;;;0.50;0.50;;;;;;;8.02;76.32;96611.63;29396;203;63008;-56
2022/11/15 02:07:04;;;;;;;0.50;0.50;;;;;;;8.01;75.91;96610.00;29397;223;63004;-57
2022/11/15 02:07:37;;;;;;;0.50;0.50;;;;;;;8.01;76.24;96620.81;29396;228;63009;-57
2022/11/15 02:08:19;;;;;;;0.50;0.50;;;;;;;7.99;76.19;96617.59;29396;210;63007;-57
2022/11/15 02:08:51;;;;;;;0.50;0.50;;;;;;;7.99;76.48;96612.19;29396;215;63009;-57
2022/11/15 02:09:23;;;;;;;0.50;0.50;;;;;;;7.99;76.42;96612.19;29396;222;63005;-69
2022/11/15 02:09:55;;;;;;;0.50;0.50;;;;;;;7.99;76.69;96606.78;29395;248;64013;-57
2022/11/15 02:10:27;;;;;;;0.50;0.50;;;;;;;7.98;76.51;96610.56;29396;214;63005;-57
2022/11/15 02:10:59;;;;;;;0.50;0.50;;;;;;;7.95;76.67;96607.66;29396;208;63009;-57
2022/11/15 02:11:31;;;;;;;0.50;0.50;;;;;;;7.94;76.58;96609.56;29396;226;63004;-71
2022/11/15 02:12:08;;;;;;;0.50;0.50;;;;;;;7.93;76.99;96604.44;29396;230;63009;-56
2022/11/15 02:12:40;;;;;;;0.50;0.50;;;;;;;7.92;76.92;96606.31;29396;267;63004;-57
2022/11/15 02:13:13;;;;;;;0.50;0.50;;;;;;;7.91;77.00;96604.72;29396;203;63009;-58
2022/11/15 02:13:45;;;;;;;0.50;0.50;;;;;;;7.91;77.07;96606.59;29396;210;63004;-57
2022/11/15 02:14:20;;;;;;;0.57;0.57;;;;;;;7.91;77.18;96607.41;29396;245;63008;-57
2022/11/15 02:14:54;;;;;;;0.50;0.50;;;;;;;7.89;77.15;96606.88;29396;209;63005;-70
2022/11/15 02:15:34;;;;;;;0.50;0.50;;;;;;;7.89;77.10;96606.09;29395;203;64023;-69
2022/11/15 02:16:43;;;;;;;0.50;0.50;;;;;;;7.89;77.00;96609.59;29396;202;63005;-57
2022/11/15 02:17:53;;;;;;;0.50;0.50;;;;;;;7.87;77.28;96600.97;29396;216;63009;-56
2022/11/15 02:19:05;;;;;;;0.50;0.50;;;;;;;7.86;77.17;96602.03;29396;222;63009;-56
2022/11/15 02:20:14;;;;;;;0.50;0.50;;;;;;;7.84;77.26;96603.41;29418;224;63004;-57
2022/11/15 02:21:02;;;;;;;0.50;0.50;;;;;;;7.81;77.57;96593.97;29395;231;64009;-57
2022/11/15 02:21:50;;;;;;;0.50;0.50;;;;;;;7.82;77.58;96600.19;29396;265;63008;-57
2022/11/15 02:23:13;;;;;;;0.50;0.50;;;;;;;7.83;77.18;96597.22;29396;273;63005;-57
2022/11/15 02:24:38;;;;;;;0.55;0.55;;;;;;;7.82;77.51;96595.59;29418;273;63009;-57
2022/11/15 02:25:49;;;;;;;0.50;0.50;;;;;;;7.82;77.24;96595.59;29395;214;64009;-58
2022/11/15 02:26:55;;;;;;;0.50;0.50;;;;;;;7.83;77.21;96593.69;29396;203;63009;-58
2022/11/15 02:27:52;;;;;;;0.50;0.50;;;;;;;7.82;77.21;96590.19;29396;243;63009;-57
2022/11/15 02:28:42;;;;;;;0.60;0.60;;;;;;;7.81;77.47;96585.87;29396;220;63004;-57
2022/11/15 02:29:55;;;;;;;0.50;0.50;;;;;;;7.80;77.44;96596.97;29396;347;63008;-58
2022/11/15 02:31:00;;;;;;;0.50;0.50;;;;;;;7.75;77.86;96587.00;29395;215;64009;-57
2022/11/15 02:32:13;;;;;;;0.50;0.50;;;;;;;7.74;77.90;96590.78;29395;295;64014;-57
2022/11/15 02:33:08;;;;;;;0.50;0.50;;;;;;;7.71;77.66;96589.44;29396;222;63005;-57
2022/11/15 02:34:15;;;;;;;0.50;0.50;;;;;;;7.72;77.93;96590.25;29395;202;64013;-57
2022/11/15 02:35:20;;;;;;;0.50;0.50;;;;;;;7.71;77.76;96580.53;29396;267;63009;-56
2022/11/15 02:36:22;;;;;;;0.50;0.50;;;;;;;7.73;77.99;96581.06;29395;207;64009;-57
2022/11/15 02:37:41;;;;;;;0.50;0.50;;;;;;;7.74;77.69;96582.69;29418;192;63017;-57
2022/11/15 02:38:58;;;;;;;0.50;0.50;;;;;;;7.76;77.56;96580.50;29396;223;63005;-72
2022/11/15 02:40:14;;;;;;;0.50;0.50;;;;;;;7.78;77.72;96583.72;29396;225;63009;-57
2022/11/15 02:41:15;;;;;;;0.50;0.50;;;;;;;7.79;77.21;96585.34;29395;261;64013;-57
2022/11/15 02:41:57;;;;;;;0.60;0.60;;;;;;;7.78;77.66;96578.34;29418;231;63004;-57
2022/11/15 02:44:34;;;;;;;0.50;0.50;;;;;;;7.80;77.12;96576.16;29396;196;63008;-57
2022/11/15 02:45:11;;;;;;;0.50;0.50;;;;;;;7.80;77.63;96581.56;29418;218;63005;-57
2022/11/15 02:45:51;;;;;;;0.50;0.50;;;;;;;7.81;77.38;96574.25;29397;291;63009;-57
2022/11/15 02:47:46;;;;;;;0.60;0.60;;;;;;;7.78;77.22;96572.94;29395;388;64013;-57
2022/11/15 02:48:19;;;;;;;0.50;0.50;;;;;;;7.78;77.37;96575.62;29397;251;63005;-70
2022/11/15 02:48:51;;;;;;;0.50;0.50;;;;;;;7.78;77.57;96567.53;29397;197;63009;-57
2022/11/15 02:49:26;;;;;;;0.50;0.50;;;;;;;7.81;77.57;96568.88;29397;198;63004;-57
2022/11/15 02:50:01;;;;;;;0.50;0.50;;;;;;;7.80;77.43;96564.56;29395;240;63009;-57
2022/11/15 02:50:33;;;;;;;0.50;0.50;;;;;;;7.79;77.53;96562.94;29396;240;63004;-70
2022/11/15 02:51:05;;;;;;;0.50;0.50;;;;;;;7.80;77.44;96564.56;29395;273;63009;-57
2022/11/15 02:51:37;;;;;;;0.50;0.50;;;;;;;7.81;77.50;96560.75;29393;222;64009;-58
2022/11/15 02:52:09;;;;;;;0.50;0.50;;;;;;;7.79;77.79;96562.94;29393;196;64013;-57
2022/11/15 02:52:40;;;;;;;0.50;0.50;;;;;;;7.78;77.89;96561.31;29395;221;63005;-57
2022/11/15 02:53:15;;;;;;;0.50;0.50;;;;;;;7.77;77.67;96568.63;29395;202;63015;-57
2022/11/15 02:53:46;;;;;;;0.50;0.50;;;;;;;7.76;77.67;96569.72;29395;207;63005;-57
2022/11/15 02:54:25;;;;;;;0.50;0.50;;;;;;;7.74;77.76;96561.88;29393;260;64013;-57
2022/11/15 02:54:59;;;;;;;0.50;0.50;;;;;;;7.74;78.17;96569.19;29394;222;63005;-57
2022/11/15 02:55:38;;;;;;;0.50;0.50;;;;;;;7.73;78.38;96568.38;29395;202;63009;-57